Time;durP1;ratioP1;P1;durP2;ratioP2;P2;SDS_P1;SDS_P2;PMS_P1;PMS_P2;Temp;Humidity;BMP_temperature;BMP_pressure;BME280_temperature;BME280_humidity;BME280_pressure;Samples;Min_cycle;Max_cycle;Signal;HPM_P1;HPM_P2
2023/12/22 00:02:04;;;;;;;13.55;1.95;;;;;;;;;;6390252;22;20368;-76
2023/12/22 00:04:30;;;;;;;12.27;2.90;;;;;;;;;;6363557;22;20342;-76
2023/12/22 00:06:55;;;;;;;14.85;2.67;;;;;;;;;;6362760;22;20022;-77
2023/12/22 00:09:21;;;;;;;10.68;3.08;;;;;;;;;;6391469;22;20009;-75
2023/12/22 00:11:46;;;;;;;10.25;1.95;;;;;;;;;;6391491;22;20382;-76
2023/12/22 00:14:11;;;;;;;12.73;1.95;;;;;;;;;;6390944;22;20010;-76
2023/12/22 00:16:38;;;;;;;12.40;2.75;;;;;;;;;;6390502;22;20013;-76
2023/12/22 00:19:03;;;;;;;16.50;2.33;;;;;;;;;;6391547;22;20018;-76
2023/12/22 00:21:29;;;;;;;9.65;1.85;;;;;;;;;;6390778;22;20016;-76
2023/12/22 00:23:54;;;;;;;11.40;2.75;;;;;;;;;;6363206;22;20352;-76
2023/12/22 00:26:20;;;;;;;13.35;2.35;;;;;;;;;;6364386;22;19998;-76
2023/12/22 00:28:45;;;;;;;12.50;2.30;;;;;;;;;;6367396;22;20010;-76
2023/12/22 00:31:12;;;;;;;4.90;1.48;;;;;;;;;;6402331;22;20632;-76
2023/12/22 00:33:38;;;;;;;11.75;2.20;;;;;;;;;;6374711;22;20013;-76
2023/12/22 00:36:03;;;;;;;7.72;1.67;;;;;;;;;;6362539;22;20002;-76
2023/12/22 00:38:29;;;;;;;16.33;2.78;;;;;;;;;;6391610;22;20006;-76
2023/12/22 00:40:55;;;;;;;6.35;2.05;;;;;;;;;;6362144;22;20329;-76
2023/12/22 00:43:20;;;;;;;6.32;1.48;;;;;;;;;;6391188;22;20453;-76
2023/12/22 00:45:45;;;;;;;9.38;2.05;;;;;;;;;;6390548;22;20018;-76
2023/12/22 00:48:11;;;;;;;13.20;2.40;;;;;;;;;;6391002;22;20009;-75
2023/12/22 00:50:36;;;;;;;11.95;2.50;;;;;;;;;;6391672;22;20794;-76
2023/12/22 00:53:02;;;;;;;14.65;2.65;;;;;;;;;;6390340;22;20009;-75
2023/12/22 00:55:27;;;;;;;17.70;3.28;;;;;;;;;;6361975;22;20016;-75
2023/12/22 00:57:52;;;;;;;15.13;3.13;;;;;;;;;;6390914;22;20156;-75
2023/12/22 01:00:18;;;;;;;9.93;2.22;;;;;;;;;;6362076;22;20017;-76
2023/12/22 01:02:43;;;;;;;8.52;2.42;;;;;;;;;;6392066;22;20010;-76
2023/12/22 01:05:10;;;;;;;17.20;3.38;;;;;;;;;;6362355;22;20014;-75
2023/12/22 01:07:35;;;;;;;17.80;3.83;;;;;;;;;;6390278;22;20500;-76
2023/12/22 01:10:01;;;;;;;15.70;3.95;;;;;;;;;;6362626;22;20009;-75
2023/12/22 01:12:30;;;;;;;17.98;4.00;;;;;;;;;;6389604;22;20014;-76
2023/12/22 01:14:58;;;;;;;19.48;3.70;;;;;;;;;;6362815;22;19998;-76
2023/12/22 01:17:24;;;;;;;18.25;2.85;;;;;;;;;;6362684;22;20080;-75
2023/12/22 01:19:50;;;;;;;13.23;2.42;;;;;;;;;;6360819;22;20038;-75
2023/12/22 01:22:16;;;;;;;14.07;3.20;;;;;;;;;;6390649;22;20108;-75
2023/12/22 01:24:43;;;;;;;15.65;3.28;;;;;;;;;;6390750;22;20429;-75
2023/12/22 01:27:09;;;;;;;13.18;2.15;;;;;;;;;;6390295;22;20028;-76
2023/12/22 01:29:35;;;;;;;11.95;2.97;;;;;;;;;;6390838;22;19998;-76
2023/12/22 01:32:00;;;;;;;13.55;2.40;;;;;;;;;;6389951;22;20029;-75
2023/12/22 01:34:25;;;;;;;15.77;3.28;;;;;;;;;;6361740;22;20836;-76
2023/12/22 01:36:51;;;;;;;12.57;2.30;;;;;;;;;;6390666;22;20016;-75
2023/12/22 01:39:16;;;;;;;13.18;2.63;;;;;;;;;;6362064;22;20067;-76
2023/12/22 01:41:42;;;;;;;13.48;2.75;;;;;;;;;;6391446;22;20357;-75
2023/12/22 01:44:07;;;;;;;16.55;2.58;;;;;;;;;;6390808;22;20041;-76
2023/12/22 01:46:34;;;;;;;17.65;2.88;;;;;;;;;;6363437;22;20010;-76
2023/12/22 01:49:03;;;;;;;15.85;2.60;;;;;;;;;;6368988;22;20014;-76
2023/12/22 01:51:34;;;;;;;16.92;2.92;;;;;;;;;;6408764;22;20025;-75
2023/12/22 01:54:03;;;;;;;13.57;2.80;;;;;;;;;;6377886;22;20344;-75
2023/12/22 01:56:28;;;;;;;16.10;3.08;;;;;;;;;;6365751;22;20032;-75
2023/12/22 01:58:59;;;;;;;17.50;2.65;;;;;;;;;;6390994;22;20014;-75
2023/12/22 02:01:24;;;;;;;15.63;3.15;;;;;;;;;;6362152;22;20026;-75
2023/12/22 02:03:54;;;;;;;7.82;2.08;;;;;;;;;;6390121;22;20024;-75
2023/12/22 02:06:19;;;;;;;9.40;1.98;;;;;;;;;;6362182;22;20025;-75
2023/12/22 02:08:48;;;;;;;5.20;1.10;;;;;;;;;;6390387;22;20000;-75
2023/12/22 02:11:14;;;;;;;3.90;0.70;;;;;;;;;;6389967;22;20752;-76
2023/12/22 02:13:41;;;;;;;2.75;0.95;;;;;;;;;;6373572;22;20068;-75
2023/12/22 02:16:24;;;;;;;3.50;0.55;;;;;;;;;;6361310;22;20006;-75
2023/12/22 02:18:52;;;;;;;4.43;0.90;;;;;;;;;;6360784;22;20020;-75
2023/12/22 02:21:17;;;;;;;2.10;0.73;;;;;;;;;;6389683;22;20006;-75
2023/12/22 02:23:44;;;;;;;1.83;0.70;;;;;;;;;;6362196;22;19997;-75
2023/12/22 02:26:27;;;;;;;4.18;0.75;;;;;;;;;;6389197;22;20020;-76
2023/12/22 02:28:57;;;;;;;3.38;0.90;;;;;;;;;;6390089;22;20014;-75
2023/12/22 02:31:37;;;;;;;7.78;1.00;;;;;;;;;;6388709;22;20014;-75
2023/12/22 02:34:11;;;;;;;3.13;0.57;;;;;;;;;;6360318;22;20014;-76
2023/12/22 02:36:36;;;;;;;;;;;;;;;;;;6390585;22;20018;-76
2023/12/22 02:39:02;;;;;;;4.68;0.75;;;;;;;;;;6361382;22;19913;-76
2023/12/22 02:41:27;;;;;;;3.55;0.95;;;;;;;;;;6389940;22;20016;-76
2023/12/22 02:43:53;;;;;;;1.48;0.68;;;;;;;;;;6388725;22;20017;-76
2023/12/22 02:46:18;;;;;;;4.80;0.95;;;;;;;;;;6389442;22;20138;-76
2023/12/22 02:48:44;;;;;;;5.60;1.02;;;;;;;;;;6388479;22;20020;-76
2023/12/22 02:51:09;;;;;;;5.32;1.40;;;;;;;;;;6389452;22;20010;-75
2023/12/22 02:53:34;;;;;;;7.13;1.23;;;;;;;;;;6390835;22;19994;-76
2023/12/22 02:56:00;;;;;;;4.25;1.13;;;;;;;;;;6389566;22;20723;-76
2023/12/22 02:58:25;;;;;;;5.57;0.85;;;;;;;;;;6388864;22;20063;-76
2023/12/22 03:00:50;;;;;;;6.07;1.25;;;;;;;;;;6361494;22;20422;-76
2023/12/22 03:03:16;;;;;;;4.28;1.35;;;;;;;;;;6361975;22;20013;-76
2023/12/22 03:05:41;;;;;;;8.18;1.63;;;;;;;;;;6391239;22;20014;-76
2023/12/22 03:08:06;;;;;;;11.88;1.50;;;;;;;;;;6394915;22;20024;-75
2023/12/22 03:10:32;;;;;;;5.55;1.80;;;;;;;;;;6404007;22;20082;-76
2023/12/22 03:12:57;;;;;;;8.75;2.20;;;;;;;;;;6399188;22;20018;-75
2023/12/22 03:15:23;;;;;;;13.57;2.25;;;;;;;;;;6360169;22;20012;-76
2023/12/22 03:17:51;;;;;;;13.50;1.55;;;;;;;;;;6390348;22;20408;-75
2023/12/22 03:20:16;;;;;;;7.32;1.27;;;;;;;;;;6361004;22;20010;-76
2023/12/22 03:22:41;;;;;;;14.07;2.35;;;;;;;;;;6389430;22;20009;-76
2023/12/22 03:25:07;;;;;;;10.18;1.95;;;;;;;;;;6388563;22;20021;-76
2023/12/22 03:27:32;;;;;;;9.15;2.45;;;;;;;;;;6361009;22;20062;-76
2023/12/22 03:29:58;;;;;;;13.93;2.72;;;;;;;;;;6388837;22;20006;-76
2023/12/22 03:32:23;;;;;;;16.20;3.10;;;;;;;;;;6390139;22;20069;-76
2023/12/22 03:34:51;;;;;;;14.50;2.35;;;;;;;;;;6387303;22;20014;-76
2023/12/22 03:37:16;;;;;;;21.05;3.03;;;;;;;;;;6389336;22;20094;-76
2023/12/22 03:39:41;;;;;;;11.60;2.00;;;;;;;;;;6388725;22;20018;-76
2023/12/22 03:42:07;;;;;;;16.83;2.92;;;;;;;;;;6388894;22;19993;-75
2023/12/22 03:44:32;;;;;;;17.33;2.40;;;;;;;;;;6389510;22;20008;-76
2023/12/22 03:46:57;;;;;;;14.23;2.40;;;;;;;;;;6387588;22;20025;-76
2023/12/22 03:49:23;;;;;;;12.27;2.15;;;;;;;;;;6360380;22;20737;-75
2023/12/22 03:51:48;;;;;;;15.18;2.90;;;;;;;;;;6389253;22;20077;-76
2023/12/22 03:54:15;;;;;;;13.73;2.83;;;;;;;;;;6389244;22;20009;-76
2023/12/22 03:56:41;;;;;;;15.57;3.47;;;;;;;;;;6388843;22;20020;-76
2023/12/22 03:59:06;;;;;;;12.10;3.20;;;;;;;;;;6360817;22;20671;-75
2023/12/22 04:01:31;;;;;;;18.08;2.97;;;;;;;;;;6389238;22;20010;-76
2023/12/22 04:03:57;;;;;;;19.65;3.00;;;;;;;;;;6388901;22;20401;-75
2023/12/22 04:06:23;;;;;;;14.38;2.80;;;;;;;;;;6360753;22;20018;-75
2023/12/22 04:08:51;;;;;;;11.45;1.90;;;;;;;;;;6361293;22;19994;-76
2023/12/22 04:11:16;;;;;;;15.48;2.75;;;;;;;;;;6360807;22;20374;-76
2023/12/22 04:13:42;;;;;;;14.70;2.40;;;;;;;;;;6361092;22;20069;-75
2023/12/22 04:16:07;;;;;;;24.48;3.55;;;;;;;;;;6360899;22;20022;-75
2023/12/22 04:18:33;;;;;;;17.15;2.75;;;;;;;;;;6388910;22;20014;-75
2023/12/22 04:20:58;;;;;;;16.60;2.83;;;;;;;;;;6388976;22;20002;-75
2023/12/22 04:23:23;;;;;;;19.10;3.40;;;;;;;;;;6390823;22;20054;-75
2023/12/22 04:25:49;;;;;;;15.80;3.70;;;;;;;;;;6363743;22;20014;-75
2023/12/22 04:28:15;;;;;;;15.27;3.30;;;;;;;;;;6399614;22;20010;-76
2023/12/22 04:30:40;;;;;;;12.43;2.70;;;;;;;;;;6381063;22;20020;-75
2023/12/22 04:33:05;;;;;;;18.90;3.55;;;;;;;;;;6403539;22;19998;-75
2023/12/22 04:35:31;;;;;;;15.23;2.53;;;;;;;;;;6366582;22;20043;-75
2023/12/22 04:37:56;;;;;;;22.88;3.67;;;;;;;;;;6364380;22;20021;-76
2023/12/22 04:40:21;;;;;;;23.75;3.40;;;;;;;;;;6392067;22;20368;-75
2023/12/22 04:42:47;;;;;;;13.10;2.38;;;;;;;;;;6363072;22;20462;-75
2023/12/22 04:45:12;;;;;;;13.13;2.63;;;;;;;;;;6391820;22;20017;-75
2023/12/22 04:47:38;;;;;;;18.20;2.92;;;;;;;;;;6391273;22;20295;-75
2023/12/22 04:50:04;;;;;;;9.55;2.08;;;;;;;;;;6362637;22;20020;-75
2023/12/22 04:52:29;;;;;;;16.50;2.50;;;;;;;;;;6390691;22;20040;-75
2023/12/22 04:54:54;;;;;;;19.65;2.65;;;;;;;;;;6391774;22;20089;-75
2023/12/22 04:57:21;;;;;;;13.95;2.83;;;;;;;;;;6390662;22;20074;-75
2023/12/22 04:59:47;;;;;;;12.77;2.35;;;;;;;;;;6391059;22;20002;-75
2023/12/22 05:02:12;;;;;;;14.77;2.85;;;;;;;;;;6362593;22;20418;-75
2023/12/22 05:04:38;;;;;;;18.00;3.08;;;;;;;;;;6362644;22;20056;-75
2023/12/22 05:07:06;;;;;;;13.30;2.35;;;;;;;;;;6388350;22;20025;-76
2023/12/22 05:09:33;;;;;;;19.88;2.67;;;;;;;;;;6362233;22;20006;-75
2023/12/22 05:11:58;;;;;;;20.85;2.53;;;;;;;;;;6389833;22;20486;-75
2023/12/22 05:14:23;;;;;;;17.00;2.53;;;;;;;;;;6363248;22;20002;-75
2023/12/22 05:16:49;;;;;;;11.90;2.17;;;;;;;;;;6390927;22;20512;-75
2023/12/22 05:19:15;;;;;;;11.73;3.42;;;;;;;;;;6361641;22;20025;-75
2023/12/22 05:21:40;;;;;;;22.63;3.63;;;;;;;;;;6390631;22;20009;-75
2023/12/22 05:24:05;;;;;;;16.67;2.58;;;;;;;;;;6390863;22;20002;-75
2023/12/22 05:26:31;;;;;;;16.88;3.03;;;;;;;;;;6390948;22;20063;-75
2023/12/22 05:28:57;;;;;;;10.02;2.10;;;;;;;;;;6362407;22;20014;-75
2023/12/22 05:31:22;;;;;;;14.70;3.08;;;;;;;;;;6361649;22;20076;-75
2023/12/22 05:33:48;;;;;;;14.00;2.65;;;;;;;;;;6361196;22;20364;-76
2023/12/22 05:36:13;;;;;;;12.70;2.40;;;;;;;;;;6361921;22;20009;-75
2023/12/22 05:38:39;;;;;;;19.80;3.28;;;;;;;;;;6391493;22;20085;-75
2023/12/22 05:41:06;;;;;;;11.95;2.53;;;;;;;;;;6390450;22;20090;-75
2023/12/22 05:43:32;;;;;;;14.35;2.08;;;;;;;;;;6362948;22;20427;-75
2023/12/22 05:45:57;;;;;;;12.00;2.45;;;;;;;;;;6394204;22;20014;-75
2023/12/22 05:48:22;;;;;;;11.32;2.22;;;;;;;;;;6403426;22;20006;-75
2023/12/22 05:50:51;;;;;;;15.05;3.45;;;;;;;;;;6376163;22;20006;-75
2023/12/22 05:53:19;;;;;;;10.23;2.03;;;;;;;;;;6391518;22;20409;-75
2023/12/22 05:55:44;;;;;;;12.27;2.70;;;;;;;;;;6390323;22;20084;-75
2023/12/22 05:58:10;;;;;;;20.75;3.25;;;;;;;;;;6389309;22;20038;-76
2023/12/22 06:00:35;;;;;;;11.45;2.22;;;;;;;;;;6390533;22;20014;-75
2023/12/22 06:03:01;;;;;;;6.00;1.73;;;;;;;;;;6390078;22;20004;-75
2023/12/22 06:05:26;;;;;;;10.93;2.13;;;;;;;;;;6361974;22;19998;-75
2023/12/22 06:07:52;;;;;;;9.55;2.40;;;;;;;;;;6361725;22;20009;-75
2023/12/22 06:10:17;;;;;;;9.45;2.35;;;;;;;;;;6389033;22;20013;-75
2023/12/22 06:12:43;;;;;;;11.90;2.80;;;;;;;;;;6361125;22;20738;-75
2023/12/22 06:15:08;;;;;;;6.15;1.80;;;;;;;;;;6387565;22;20085;-77
2023/12/22 06:17:34;;;;;;;11.80;2.22;;;;;;;;;;6362251;22;20006;-75
2023/12/22 06:20:02;;;;;;;7.75;1.90;;;;;;;;;;6387991;22;20090;-75
2023/12/22 06:22:27;;;;;;;7.55;1.60;;;;;;;;;;6360394;22;20012;-75
2023/12/22 06:24:52;;;;;;;8.05;1.90;;;;;;;;;;6387438;22;20085;-75
2023/12/22 06:27:18;;;;;;;8.73;2.08;;;;;;;;;;6361333;22;20009;-75
2023/12/22 06:29:43;;;;;;;11.60;1.80;;;;;;;;;;6361749;22;19998;-75
2023/12/22 06:32:09;;;;;;;10.63;1.60;;;;;;;;;;6389770;22;20013;-75
2023/12/22 06:34:34;;;;;;;14.43;2.15;;;;;;;;;;6389946;22;20038;-75
2023/12/22 06:37:00;;;;;;;8.77;1.63;;;;;;;;;;6390325;22;20021;-75
2023/12/22 06:39:25;;;;;;;9.20;2.28;;;;;;;;;;6361340;22;20024;-75
2023/12/22 06:41:51;;;;;;;19.88;3.25;;;;;;;;;;6390142;22;20426;-75
2023/12/22 06:44:16;;;;;;;14.13;2.30;;;;;;;;;;6363197;22;20002;-75
2023/12/22 06:46:41;;;;;;;9.40;2.22;;;;;;;;;;6361160;22;20010;-75
2023/12/22 06:49:07;;;;;;;7.10;1.75;;;;;;;;;;6361820;22;20723;-75
2023/12/22 06:51:35;;;;;;;6.45;1.67;;;;;;;;;;6390430;22;20394;-75
2023/12/22 06:54:02;;;;;;;6.85;1.48;;;;;;;;;;6360089;22;20002;-75
2023/12/22 06:56:29;;;;;;;4.60;1.27;;;;;;;;;;6390642;22;19997;-75
2023/12/22 06:58:57;;;;;;;8.35;2.00;;;;;;;;;;6387255;22;20147;-75
2023/12/22 07:01:25;;;;;;;9.07;1.77;;;;;;;;;;6390320;22;20014;-75
2023/12/22 07:03:50;;;;;;;6.05;1.33;;;;;;;;;;6392192;22;20088;-75
2023/12/22 07:06:17;;;;;;;8.15;1.20;;;;;;;;;;6369697;22;20406;-75
2023/12/22 07:08:43;;;;;;;10.85;1.40;;;;;;;;;;6381336;22;19993;-75
2023/12/22 07:11:12;;;;;;;3.75;0.90;;;;;;;;;;6374125;22;20656;-75
2023/12/22 07:13:38;;;;;;;4.93;1.63;;;;;;;;;;6364458;22;20010;-75
2023/12/22 07:16:05;;;;;;;3.67;1.20;;;;;;;;;;6389142;22;20009;-75
2023/12/22 07:18:30;;;;;;;6.05;1.42;;;;;;;;;;6387920;22;20392;-75
2023/12/22 07:20:59;;;;;;;4.07;1.35;;;;;;;;;;6360766;22;20471;-75
2023/12/22 07:23:25;;;;;;;4.25;1.85;;;;;;;;;;6362509;22;20344;-75
2023/12/22 07:25:50;;;;;;;4.20;1.00;;;;;;;;;;6362009;22;20460;-75
2023/12/22 07:28:16;;;;;;;3.97;1.42;;;;;;;;;;6362159;22;20006;-75
2023/12/22 07:30:42;;;;;;;5.55;1.25;;;;;;;;;;6389543;22;20034;-75
2023/12/22 07:33:07;;;;;;;3.30;1.33;;;;;;;;;;6388484;22;20520;-75
2023/12/22 07:35:32;;;;;;;5.30;1.45;;;;;;;;;;6388917;22;19997;-75
2023/12/22 07:37:58;;;;;;;5.03;1.60;;;;;;;;;;6389360;22;20540;-75
2023/12/22 07:40:23;;;;;;;5.28;1.40;;;;;;;;;;6361589;22;20020;-75
2023/12/22 07:42:50;;;;;;;5.20;1.35;;;;;;;;;;6360337;22;20021;-75
2023/12/22 07:45:16;;;;;;;4.47;1.60;;;;;;;;;;6390079;22;20006;-75
2023/12/22 07:47:41;;;;;;;4.78;1.40;;;;;;;;;;6361630;22;19998;-76
2023/12/22 07:50:08;;;;;;;8.52;2.90;;;;;;;;;;6360803;22;20096;-75
2023/12/22 07:52:38;;;;;;;11.93;3.08;;;;;;;;;;6389893;22;20014;-75
2023/12/22 07:55:10;;;;;;;11.20;3.47;;;;;;;;;;6361416;22;20014;-75
2023/12/22 07:57:37;;;;;;;10.75;2.55;;;;;;;;;;6389488;22;20009;-75
2023/12/22 08:00:03;;;;;;;7.85;3.22;;;;;;;;;;6360537;22;19998;-76
2023/12/22 08:02:28;;;;;;;15.15;3.70;;;;;;;;;;6361569;22;19994;-75
2023/12/22 08:04:54;;;;;;;9.93;2.88;;;;;;;;;;6389605;22;20061;-75
2023/12/22 08:07:19;;;;;;;14.43;4.03;;;;;;;;;;6361159;22;20475;-76
2023/12/22 08:09:45;;;;;;;11.38;3.50;;;;;;;;;;6390256;22;20017;-76
2023/12/22 08:12:10;;;;;;;12.55;3.03;;;;;;;;;;6391331;22;20096;-75
2023/12/22 08:14:35;;;;;;;10.45;3.20;;;;;;;;;;6390851;22;20012;-76
2023/12/22 08:17:03;;;;;;;10.50;3.75;;;;;;;;;;6390962;22;20093;-76
2023/12/22 08:19:29;;;;;;;11.60;4.00;;;;;;;;;;6364084;22;20026;-76
2023/12/22 08:21:55;;;;;;;15.77;3.70;;;;;;;;;;6392965;22;20016;-75
2023/12/22 08:24:23;;;;;;;15.85;4.60;;;;;;;;;;6369106;22;20032;-76
2023/12/22 08:26:50;;;;;;;12.07;4.15;;;;;;;;;;6407027;22;20002;-76
2023/12/22 08:29:15;;;;;;;14.68;3.80;;;;;;;;;;6399963;22;19994;-74
2023/12/22 08:31:41;;;;;;;11.27;3.20;;;;;;;;;;6363143;22;20014;-74
2023/12/22 08:34:06;;;;;;;8.00;2.95;;;;;;;;;;6391092;22;20010;-74
2023/12/22 08:36:32;;;;;;;10.82;2.90;;;;;;;;;;6389753;22;20016;-74
2023/12/22 08:38:57;;;;;;;11.43;2.83;;;;;;;;;;6391694;22;20341;-74
2023/12/22 08:41:23;;;;;;;7.68;2.53;;;;;;;;;;6363294;22;20491;-74
2023/12/22 08:43:48;;;;;;;10.00;2.50;;;;;;;;;;6362246;22;20025;-74
2023/12/22 08:46:14;;;;;;;6.38;2.20;;;;;;;;;;6390900;22;20015;-75
2023/12/22 08:48:40;;;;;;;7.55;2.35;;;;;;;;;;6360721;22;20013;-74
2023/12/22 08:51:05;;;;;;;5.95;2.03;;;;;;;;;;6362955;22;20096;-74
2023/12/22 08:53:33;;;;;;;7.22;1.73;;;;;;;;;;6387038;22;20416;-74
2023/12/22 08:56:00;;;;;;;7.93;2.00;;;;;;;;;;6343244;22;20028;-74
2023/12/22 08:58:26;;;;;;;4.35;1.25;;;;;;;;;;6361496;22;20040;-75
2023/12/22 09:00:51;;;;;;;2.35;1.05;;;;;;;;;;6362429;22;20068;-74
2023/12/22 09:03:17;;;;;;;4.85;1.40;;;;;;;;;;6390990;22;20010;-75
2023/12/22 09:05:42;;;;;;;2.92;0.85;;;;;;;;;;6392082;22;20357;-74
2023/12/22 09:08:07;;;;;;;4.88;1.48;;;;;;;;;;6390072;22;20012;-74
2023/12/22 09:10:33;;;;;;;3.40;1.20;;;;;;;;;;6362346;22;20100;-74
2023/12/22 09:12:58;;;;;;;2.55;1.20;;;;;;;;;;6361446;22;20824;-75
2023/12/22 09:15:23;;;;;;;5.18;1.10;;;;;;;;;;6390787;22;20010;-74
2023/12/22 09:17:51;;;;;;;5.00;1.13;;;;;;;;;;6390563;22;20013;-74
2023/12/22 09:20:17;;;;;;;5.40;1.30;;;;;;;;;;6362917;22;20005;-75
2023/12/22 09:22:42;;;;;;;4.72;1.38;;;;;;;;;;6390882;22;20010;-74
2023/12/22 09:25:08;;;;;;;6.47;1.38;;;;;;;;;;6361684;22;20005;-74
2023/12/22 09:27:34;;;;;;;1.50;1.10;;;;;;;;;;6361442;22;20439;-74
2023/12/22 09:29:59;;;;;;;5.38;1.20;;;;;;;;;;6362310;22;20013;-74
2023/12/22 09:32:24;;;;;;;3.83;0.93;;;;;;;;;;6362332;22;19998;-74
2023/12/22 09:34:50;;;;;;;3.50;1.08;;;;;;;;;;6390310;22;20014;-74
2023/12/22 09:37:15;;;;;;;6.72;1.35;;;;;;;;;;6362599;22;20016;-74
2023/12/22 09:39:41;;;;;;;4.55;1.25;;;;;;;;;;6391410;22;20480;-74
2023/12/22 09:42:06;;;;;;;3.35;1.10;;;;;;;;;;6393554;22;20085;-74
2023/12/22 09:44:35;;;;;;;3.00;1.20;;;;;;;;;;6405581;22;19990;-74
2023/12/22 09:47:04;;;;;;;1.90;0.90;;;;;;;;;;6411338;22;20062;-74
2023/12/22 09:49:29;;;;;;;3.13;0.90;;;;;;;;;;6395050;22;20017;-76
2023/12/22 09:51:57;;;;;;;2.78;0.93;;;;;;;;;;6363544;22;20411;-75
2023/12/22 09:54:22;;;;;;;3.42;1.00;;;;;;;;;;6391094;22;20093;-74
2023/12/22 09:56:49;;;;;;;2.35;0.93;;;;;;;;;;6390044;22;20024;-75
2023/12/22 09:59:17;;;;;;;2.90;1.10;;;;;;;;;;6389216;22;20125;-75
2023/12/22 10:01:47;;;;;;;2.60;1.10;;;;;;;;;;6360656;22;20642;-75
2023/12/22 10:04:16;;;;;;;2.00;1.15;;;;;;;;;;6389546;22;20014;-75
2023/12/22 10:06:45;;;;;;;4.03;1.00;;;;;;;;;;6361085;22;20022;-75
2023/12/22 10:09:14;;;;;;;1.50;0.73;;;;;;;;;;6390079;22;20036;-75
2023/12/22 10:11:43;;;;;;;3.03;0.95;;;;;;;;;;6386948;22;20372;-75
2023/12/22 10:14:10;;;;;;;2.38;0.93;;;;;;;;;;6390061;22;20006;-75
2023/12/22 10:16:36;;;;;;;3.67;0.88;;;;;;;;;;6388958;22;20014;-75
2023/12/22 10:19:03;;;;;;;1.52;1.10;;;;;;;;;;6370591;22;20097;-75
2023/12/22 10:21:30;;;;;;;3.45;0.95;;;;;;;;;;6389140;22;20423;-75
2023/12/22 10:23:56;;;;;;;3.30;0.88;;;;;;;;;;6361050;22;20004;-75
2023/12/22 10:26:22;;;;;;;5.60;1.08;;;;;;;;;;6389198;22;20069;-75
2023/12/22 10:28:49;;;;;;;2.88;0.88;;;;;;;;;;6389798;22;20032;-75
2023/12/22 10:31:14;;;;;;;2.70;1.30;;;;;;;;;;6388833;22;20013;-75
2023/12/22 10:33:40;;;;;;;4.13;0.70;;;;;;;;;;6360552;22;20057;-75
2023/12/22 10:36:07;;;;;;;3.80;1.00;;;;;;;;;;6390400;22;20073;-75
2023/12/22 10:38:34;;;;;;;2.72;1.00;;;;;;;;;;6361727;22;20009;-74
2023/12/22 10:41:00;;;;;;;2.45;0.98;;;;;;;;;;6388637;22;20089;-74
2023/12/22 10:43:26;;;;;;;2.97;1.10;;;;;;;;;;6389118;22;20024;-75
2023/12/22 10:45:52;;;;;;;1.73;1.00;;;;;;;;;;6389742;22;20010;-74
2023/12/22 10:48:18;;;;;;;3.60;0.98;;;;;;;;;;6388956;22;20005;-74
2023/12/22 10:50:47;;;;;;;1.30;1.15;;;;;;;;;;6387550;22;20322;-74
2023/12/22 10:53:12;;;;;;;3.10;1.02;;;;;;;;;;6387198;22;20443;-73
2023/12/22 10:55:38;;;;;;;3.22;1.00;;;;;;;;;;6387615;22;20473;-74
2023/12/22 10:58:04;;;;;;;2.80;1.25;;;;;;;;;;6387815;22;20465;-74
2023/12/22 11:00:32;;;;;;;4.70;1.13;;;;;;;;;;6364326;22;20020;-74
2023/12/22 11:03:02;;;;;;;5.40;1.17;;;;;;;;;;6399946;22;20435;-73
2023/12/22 11:05:28;;;;;;;4.88;1.08;;;;;;;;;;6369945;22;20512;-73
2023/12/22 11:07:55;;;;;;;3.45;0.90;;;;;;;;;;6386386;22;20025;-73
2023/12/22 11:10:21;;;;;;;2.08;1.02;;;;;;;;;;6385846;22;20024;-75
2023/12/22 11:12:47;;;;;;;1.98;0.98;;;;;;;;;;6356789;22;20017;-72
2023/12/22 11:15:14;;;;;;;4.95;1.00;;;;;;;;;;6357914;22;20020;-76
2023/12/22 11:17:42;;;;;;;1.67;0.88;;;;;;;;;;6357277;22;20001;-75
2023/12/22 11:20:12;;;;;;;3.72;0.80;;;;;;;;;;6386112;22;20029;-75
2023/12/22 11:22:38;;;;;;;3.30;0.85;;;;;;;;;;6386696;22;20021;-75
2023/12/22 11:25:05;;;;;;;2.53;0.90;;;;;;;;;;6385135;22;20018;-75
2023/12/22 11:27:34;;;;;;;1.40;0.93;;;;;;;;;;6357022;22;20017;-75
2023/12/22 11:30:00;;;;;;;2.80;0.82;;;;;;;;;;6385182;22;19998;-75
2023/12/22 11:32:28;;;;;;;1.98;0.90;;;;;;;;;;6356687;22;20002;-75
2023/12/22 11:34:56;;;;;;;2.15;1.60;;;;;;;;;;6386076;22;20017;-74
2023/12/22 11:37:21;;;;;;;3.15;1.20;;;;;;;;;;6386223;22;20014;-75
2023/12/22 11:39:48;;;;;;;2.88;1.15;;;;;;;;;;6386205;22;20499;-76
2023/12/22 11:42:21;;;;;;;3.67;1.08;;;;;;;;;;6359731;22;20009;-74
2023/12/22 11:44:47;;;;;;;5.32;1.10;;;;;;;;;;6388163;22;20001;-74
2023/12/22 11:47:14;;;;;;;1.30;0.90;;;;;;;;;;6359456;22;20713;-74
2023/12/22 11:49:40;;;;;;;4.93;1.23;;;;;;;;;;6387763;22;20018;-74
2023/12/22 11:52:17;;;;;;;2.15;0.60;;;;;;;;;;6358276;22;20063;-74
2023/12/22 11:54:47;;;;;;;2.22;1.00;;;;;;;;;;6387464;22;20690;-74
2023/12/22 11:57:28;;;;;;;1.67;0.90;;;;;;;;;;6361189;22;20002;-73
2023/12/22 11:59:54;;;;;;;4.50;0.88;;;;;;;;;;6389261;22;20396;-74
2023/12/22 12:02:21;;;;;;;1.70;0.93;;;;;;;;;;6361847;22;20006;-74
2023/12/22 12:04:52;;;;;;;2.35;0.90;;;;;;;;;;6389783;22;20473;-74
2023/12/22 12:07:41;;;;;;;1.33;0.60;;;;;;;;;;6388886;22;20488;-74
2023/12/22 12:10:30;;;;;;;2.78;0.80;;;;;;;;;;6389156;22;20021;-74
2023/12/22 12:13:12;;;;;;;1.73;0.60;;;;;;;;;;6388604;22;20017;-74
2023/12/22 12:15:38;;;;;;;2.25;0.77;;;;;;;;;;6389218;22;20045;-74
2023/12/22 12:18:05;;;;;;;0.60;0.60;;;;;;;;;;6392432;22;20516;-74
2023/12/22 12:20:32;;;;;;;3.10;0.88;;;;;;;;;;6400063;22;20428;-74
2023/12/22 12:22:58;;;;;;;2.78;0.90;;;;;;;;;;6408916;22;20066;-72
2023/12/22 12:25:27;;;;;;;3.38;0.80;;;;;;;;;;6377154;22;20006;-73
2023/12/22 12:28:03;;;;;;;1.65;0.75;;;;;;;;;;6391675;22;20021;-74
2023/12/22 12:30:29;;;;;;;2.20;0.70;;;;;;;;;;6362927;22;20002;-74
2023/12/22 12:32:54;;;;;;;0.70;0.50;;;;;;;;;;6390186;22;20004;-73
2023/12/22 12:35:22;;;;;;;1.13;0.70;;;;;;;;;;6363009;22;20104;-75
2023/12/22 12:37:47;;;;;;;1.35;0.80;;;;;;;;;;6389949;22;20453;-75
2023/12/22 12:40:19;;;;;;;1.27;0.55;;;;;;;;;;6361869;22;20013;-75
2023/12/22 12:42:45;;;;;;;1.77;0.50;;;;;;;;;;6387705;22;20330;-80
2023/12/22 12:45:10;;;;;;;2.28;0.60;;;;;;;;;;6388078;22;20448;-75
2023/12/22 12:47:36;;;;;;;1.88;0.70;;;;;;;;;;6359952;22;20005;-77
2023/12/22 12:50:02;;;;;;;0.63;0.50;;;;;;;;;;6357544;22;20904;-76
2023/12/22 12:52:28;;;;;;;2.92;0.80;;;;;;;;;;6385027;22;20002;-76
2023/12/22 12:54:55;;;;;;;1.85;0.88;;;;;;;;;;6390863;22;20014;-76
2023/12/22 12:57:21;;;;;;;1.75;0.70;;;;;;;;;;6362723;22;20009;-76
2023/12/22 12:59:48;;;;;;;1.13;0.57;;;;;;;;;;6391157;22;20082;-76
2023/12/22 13:02:17;;;;;;;1.17;0.77;;;;;;;;;;6361904;22;20519;-76
2023/12/22 13:04:42;;;;;;;3.08;0.57;;;;;;;;;;6391392;22;20469;-76
2023/12/22 13:07:10;;;;;;;3.25;1.00;;;;;;;;;;6389686;22;20025;-76
2023/12/22 13:09:35;;;;;;;3.30;0.80;;;;;;;;;;6390155;22;20025;-76
2023/12/22 13:12:01;;;;;;;7.93;0.90;;;;;;;;;;6390641;22;20001;-76
2023/12/22 13:14:27;;;;;;;1.23;0.80;;;;;;;;;;6390482;22;20388;-75
2023/12/22 13:16:57;;;;;;;0.63;0.55;;;;;;;;;;6389657;22;20074;-75
2023/12/22 13:19:26;;;;;;;3.40;1.42;;;;;;;;;;6390178;22;20121;-75
2023/12/22 13:21:55;;;;;;;3.90;0.82;;;;;;;;;;6390060;22;20010;-75
2023/12/22 13:24:21;;;;;;;1.80;0.80;;;;;;;;;;6389602;22;20033;-78
2023/12/22 13:26:46;;;;;;;4.35;0.90;;;;;;;;;;6390726;22;20003;-75
2023/12/22 13:29:12;;;;;;;2.53;0.75;;;;;;;;;;6390311;22;20078;-75
2023/12/22 13:31:45;;;;;;;1.85;0.70;;;;;;;;;;6389952;22;20013;-76
2023/12/22 13:34:11;;;;;;;1.30;0.90;;;;;;;;;;6390531;22;20010;-75
2023/12/22 13:36:36;;;;;;;4.00;0.77;;;;;;;;;;6391269;22;20051;-75
2023/12/22 13:39:04;;;;;;;2.13;0.75;;;;;;;;;;6397317;22;20002;-76
2023/12/22 13:41:34;;;;;;;3.45;1.00;;;;;;;;;;6405996;22;20020;-75
2023/12/22 13:44:06;;;;;;;2.55;1.23;;;;;;;;;;6368407;22;20074;-75
2023/12/22 13:46:32;;;;;;;1.90;0.63;;;;;;;;;;6361980;22;20038;-75
2023/12/22 13:48:58;;;;;;;2.05;0.90;;;;;;;;;;6384249;22;20063;-75
2023/12/22 13:51:24;;;;;;;1.83;0.93;;;;;;;;;;6359228;22;20014;-75
2023/12/22 13:53:50;;;;;;;1.67;0.70;;;;;;;;;;6385163;22;20005;-75
2023/12/22 13:56:15;;;;;;;2.40;0.88;;;;;;;;;;6362921;22;20031;-75
2023/12/22 13:58:47;;;;;;;6.05;1.23;;;;;;;;;;6389385;22;20045;-75
2023/12/22 14:01:17;;;;;;;3.70;1.35;;;;;;;;;;6361589;22;20006;-75
2023/12/22 14:03:45;;;;;;;2.83;0.95;;;;;;;;;;6361657;22;20006;-75
2023/12/22 14:06:14;;;;;;;4.18;1.10;;;;;;;;;;6361935;22;20966;-76
2023/12/22 14:08:40;;;;;;;2.75;0.93;;;;;;;;;;6391499;22;20020;-75
2023/12/22 14:11:06;;;;;;;3.42;1.00;;;;;;;;;;6389595;22;20006;-75
2023/12/22 14:13:31;;;;;;;3.05;1.10;;;;;;;;;;6361221;22;20020;-75
2023/12/22 14:15:57;;;;;;;3.10;1.20;;;;;;;;;;6390550;22;20010;-74
2023/12/22 14:18:22;;;;;;;3.53;1.08;;;;;;;;;;6388840;22;20811;-75
2023/12/22 14:20:47;;;;;;;2.78;0.93;;;;;;;;;;6390043;22;20000;-76
2023/12/22 14:23:16;;;;;;;1.90;0.70;;;;;;;;;;6361613;22;20010;-75
2023/12/22 14:25:42;;;;;;;5.07;1.08;;;;;;;;;;6390092;22;20038;-76
2023/12/22 14:28:08;;;;;;;3.28;0.90;;;;;;;;;;6389621;22;20006;-76
2023/12/22 14:30:33;;;;;;;1.45;1.20;;;;;;;;;;6390238;22;20022;-76
2023/12/22 14:32:59;;;;;;;7.90;1.23;;;;;;;;;;6389744;22;20489;-75
2023/12/22 14:35:24;;;;;;;3.17;1.35;;;;;;;;;;6361845;22;20550;-76